Time;durP1;ratioP1;P1;durP2;ratioP2;P2;SDS_P1;SDS_P2;PMS_P1;PMS_P2;Temp;Humidity;BMP_temperature;BMP_pressure;BME280_temperature;BME280_humidity;BME280_pressure;Samples;Min_cycle;Max_cycle;Signal;HPM_P1;HPM_P2
2022/07/01 00:02:01;;;;;;;12.10;5.97;;;;;;;23.99;100.00;98676.97;4409786;32;20108;-74
2022/07/01 00:04:28;;;;;;;12.80;5.65;;;;;;;23.98;100.00;98672.59;4416731;32;20157;-73
2022/07/01 00:07:11;;;;;;;17.12;6.05;;;;;;;23.80;100.00;98667.34;4406856;32;20042;-73
2022/07/01 00:09:38;;;;;;;15.60;6.20;;;;;;;23.87;100.00;98669.53;4404116;32;20051;-72
2022/07/01 00:12:05;;;;;;;14.48;5.70;;;;;;;23.55;100.00;98628.94;4416127;32;20045;-72
2022/07/01 00:14:32;;;;;;;10.38;6.82;;;;;;;23.79;100.00;98663.00;4417048;32;20051;-73
2022/07/01 00:16:59;;;;;;;13.90;6.15;;;;;;;23.87;100.00;98662.09;4403397;32;20030;-73
2022/07/01 00:19:25;;;;;;;12.10;5.75;;;;;;;23.60;100.00;98624.31;4417959;32;20042;-74
2022/07/01 00:21:52;;;;;;;13.10;6.55;;;;;;;23.90;100.00;98660.59;4403549;32;20073;-73
2022/07/01 00:24:18;;;;;;;7.43;6.03;;;;;;;24.03;100.00;98658.59;4417740;32;20375;-73
2022/07/01 00:26:44;;;;;;;17.90;7.57;;;;;;;24.03;100.00;98655.84;4417438;32;20042;-71
2022/07/01 00:29:11;;;;;;;14.48;5.95;;;;;;;24.06;100.00;98646.91;4417549;32;20439;-71
2022/07/01 00:31:38;;;;;;;18.35;7.00;;;;;;;23.94;100.00;98645.81;4417564;32;20371;-72
2022/07/01 00:34:04;;;;;;;12.40;5.93;;;;;;;24.07;100.00;98648.53;4416642;32;20027;-73
2022/07/01 00:36:30;;;;;;;15.27;7.05;;;;;;;23.71;100.00;98604.28;4415885;32;20093;-73
2022/07/01 00:39:00;;;;;;;8.48;6.20;;;;;;;23.92;100.00;98631.63;4417162;32;20055;-73
2022/07/01 00:41:27;;;;;;;12.13;5.78;;;;;;;23.92;100.00;98630.81;4417617;32;20043;-73
2022/07/01 00:43:53;;;;;;;6.68;5.97;;;;;;;23.78;100.00;98642.16;4414434;32;20060;-73
2022/07/01 00:46:20;;;;;;;12.55;6.70;;;;;;;23.96;100.00;98641.91;4402365;32;20043;-73
2022/07/01 00:48:46;;;;;;;13.02;7.18;;;;;;;24.04;100.00;98643.72;4388914;32;20024;-73
2022/07/01 00:51:13;;;;;;;16.60;6.65;;;;;;;24.08;100.00;98639.13;4388281;32;20118;-72
2022/07/01 00:53:40;;;;;;;10.00;5.55;;;;;;;23.98;100.00;98645.09;4401586;32;20039;-73
2022/07/01 00:56:06;;;;;;;10.50;6.45;;;;;;;23.93;100.00;98627.72;4400796;32;20038;-72
2022/07/01 00:58:33;;;;;;;9.45;6.50;;;;;;;24.21;100.00;98637.94;4402110;32;20077;-73
2022/07/01 01:01:00;;;;;;;13.02;6.12;;;;;;;24.28;100.00;98638.13;4388014;32;20047;-73
2022/07/01 01:03:26;;;;;;;9.77;6.40;;;;;;;24.38;100.00;98638.75;4388652;32;20041;-72
2022/07/01 01:05:54;;;;;;;13.23;6.85;;;;;;;24.03;100.00;98592.63;4405946;32;20190;-72
2022/07/01 01:08:21;;;;;;;10.98;6.32;;;;;;;23.89;100.00;98588.31;4417316;32;20407;-73
2022/07/01 01:10:47;;;;;;;7.25;6.05;;;;;;;23.99;100.00;98625.50;4416411;32;20034;-73
2022/07/01 01:13:15;;;;;;;12.70;6.45;;;;;;;24.09;100.00;98626.97;4415579;32;20060;-73
2022/07/01 01:15:41;;;;;;;11.75;5.93;;;;;;;23.96;100.00;98617.16;4416561;32;20072;-73
2022/07/01 01:18:08;;;;;;;13.52;7.32;;;;;;;23.98;100.00;98626.69;4416837;32;20066;-73
2022/07/01 01:20:35;;;;;;;15.65;6.03;;;;;;;23.75;100.00;98598.87;4416777;32;20064;-73
2022/07/01 01:23:04;;;;;;;13.43;6.60;;;;;;;23.85;100.00;98627.84;4416751;32;20087;-73
2022/07/01 01:25:31;;;;;;;14.57;6.85;;;;;;;23.79;100.00;98616.28;4403373;32;20499;-73
2022/07/01 01:27:59;;;;;;;14.27;6.97;;;;;;;23.90;100.00;98627.59;4416318;32;20039;-73
2022/07/01 01:30:25;;;;;;;12.52;6.50;;;;;;;23.90;100.00;98617.41;4415709;32;20510;-73
2022/07/01 01:32:52;;;;;;;10.93;6.68;;;;;;;23.79;100.00;98621.78;4404805;32;20047;-73
2022/07/01 01:35:20;;;;;;;12.20;6.35;;;;;;;23.61;100.00;98609.44;4414916;32;20104;-73
2022/07/01 01:37:47;;;;;;;11.85;6.57;;;;;;;23.78;100.00;98625.66;4416573;32;20112;-73
2022/07/01 01:40:16;;;;;;;10.38;6.28;;;;;;;23.71;100.00;98606.19;4416549;32;20035;-72
2022/07/01 01:42:48;;;;;;;9.25;6.12;;;;;;;23.44;100.00;98567.37;4414656;32;20716;-72
2022/07/01 01:45:15;;;;;;;13.48;7.20;;;;;;;23.56;100.00;98583.78;4416857;32;20042;-72
2022/07/01 01:47:41;;;;;;;12.43;7.28;;;;;;;23.48;100.00;98576.50;4414099;32;20084;-72
2022/07/01 01:50:10;;;;;;;13.98;6.45;;;;;;;23.47;100.00;98569.41;4415807;32;20453;-72
2022/07/01 01:52:38;;;;;;;23.40;7.65;;;;;;;23.70;100.00;98590.87;4414756;32;20080;-72
2022/07/01 01:55:06;;;;;;;15.00;6.45;;;;;;;23.74;100.00;98603.59;4416035;32;20375;-72
2022/07/01 01:57:32;;;;;;;9.30;6.03;;;;;;;23.43;100.00;98582.22;4415782;32;20072;-72
2022/07/01 01:59:59;;;;;;;15.38;6.15;;;;;;;23.60;100.00;98610.59;4416108;32;20429;-70
2022/07/01 02:02:25;;;;;;;11.95;5.60;;;;;;;23.65;100.00;98599.37;4414834;32;20038;-72
2022/07/01 02:04:52;;;;;;;18.37;6.78;;;;;;;23.71;100.00;98608.94;4414600;32;20047;-73
2022/07/01 02:07:18;;;;;;;11.02;6.12;;;;;;;23.55;100.00;98595.94;4415542;32;20047;-72
2022/07/01 02:09:45;;;;;;;11.73;5.72;;;;;;;23.56;100.00;98572.81;4415646;32;20482;-72
2022/07/01 02:12:11;;;;;;;14.10;5.65;;;;;;;23.64;100.00;98582.06;4401785;32;20091;-72
2022/07/01 02:14:38;;;;;;;9.90;5.85;;;;;;;23.82;100.00;98615.59;4401708;32;20067;-72
2022/07/01 02:17:04;;;;;;;9.07;5.53;;;;;;;23.91;100.00;98613.50;4415598;32;20076;-72
2022/07/01 02:19:30;;;;;;;9.15;5.60;;;;;;;23.85;100.00;98603.91;4415690;32;20422;-71
2022/07/01 02:21:57;;;;;;;16.17;5.32;;;;;;;23.89;100.00;98599.31;4400055;32;20046;-71
2022/07/01 02:24:23;;;;;;;9.95;5.75;;;;;;;23.89;100.00;98615.81;4400686;32;20072;-72
2022/07/01 02:26:50;;;;;;;15.23;6.07;;;;;;;23.99;100.00;98608.22;4406475;32;20088;-72
2022/07/01 02:29:16;;;;;;;13.15;5.93;;;;;;;24.05;100.00;98609.59;4415394;32;20192;-72
2022/07/01 02:32:00;;;;;;;14.73;6.80;;;;;;;24.02;100.00;98607.53;4415438;32;20104;-72
2022/07/01 02:34:27;;;;;;;11.07;5.70;;;;;;;23.69;100.00;98562.59;4414442;32;20047;-72
2022/07/01 02:36:55;;;;;;;7.60;5.72;;;;;;;23.93;100.00;98611.22;4414387;32;20046;-72
2022/07/01 02:39:22;;;;;;;10.45;6.07;;;;;;;23.71;100.00;98571.28;4415320;32;20125;-71
2022/07/01 02:44:35;;;;;;;9.80;5.80;;;;;;;23.84;100.00;98580.31;4414001;32;20072;-72
2022/07/01 02:47:02;;;;;;;8.50;5.70;;;;;;;24.08;100.00;98617.12;4414529;32;20042;-72
2022/07/01 02:49:28;;;;;;;17.65;6.07;;;;;;;23.99;100.00;98597.22;4415084;32;20052;-73
2022/07/01 02:51:54;;;;;;;13.60;5.97;;;;;;;24.01;100.00;98605.91;4414519;32;20868;-72
2022/07/01 02:54:21;;;;;;;19.83;7.28;;;;;;;23.76;100.00;98605.97;4415866;32;20357;-73
2022/07/01 02:56:47;;;;;;;17.25;6.25;;;;;;;24.04;100.00;98599.72;4415390;32;20043;-72
2022/07/01 02:59:13;;;;;;;9.05;6.15;;;;;;;23.99;100.00;98591.72;4415341;32;20462;-72
2022/07/01 03:01:40;;;;;;;15.52;5.85;;;;;;;23.83;100.00;98559.47;4415122;32;20051;-72
2022/07/01 03:04:06;;;;;;;10.60;5.75;;;;;;;23.92;100.00;98593.13;4414775;32;20099;-73
2022/07/01 03:06:33;;;;;;;14.07;6.78;;;;;;;23.75;100.00;98565.91;4400679;32;20056;-73
2022/07/01 03:08:59;;;;;;;9.43;6.07;;;;;;;23.78;100.00;98556.16;4415835;32;20119;-73
2022/07/01 03:11:25;;;;;;;11.30;5.32;;;;;;;23.82;100.00;98566.13;4414975;32;20080;-72
2022/07/01 03:13:52;;;;;;;17.65;5.80;;;;;;;24.12;100.00;98598.75;4403987;32;20482;-72
2022/07/01 03:16:24;;;;;;;10.35;6.22;;;;;;;24.27;100.00;98611.78;4415699;32;20046;-72
2022/07/01 03:18:50;;;;;;;11.77;6.93;;;;;;;23.94;100.00;98551.53;4415615;32;20081;-72
2022/07/01 03:21:17;;;;;;;12.05;5.97;;;;;;;24.15;100.00;98565.06;4398945;32;20035;-73
2022/07/01 03:23:43;;;;;;;11.65;6.62;;;;;;;24.20;100.00;98575.81;4412325;32;20353;-73
2022/07/01 03:26:09;;;;;;;15.38;6.30;;;;;;;24.42;100.00;98615.69;4415201;32;20106;-73
2022/07/01 03:28:36;;;;;;;7.32;6.57;;;;;;;24.24;100.00;98595.97;4415535;32;20084;-71
2022/07/01 03:31:02;;;;;;;8.70;6.12;;;;;;;24.40;100.00;98611.72;4415259;32;20042;-72
2022/07/01 03:33:28;;;;;;;16.02;6.65;;;;;;;24.49;100.00;98609.56;4415728;32;20030;-72
2022/07/01 03:35:55;;;;;;;11.98;6.43;;;;;;;24.54;100.00;98603.84;4415220;32;20046;-73
2022/07/01 03:38:21;;;;;;;12.50;6.22;;;;;;;24.48;100.00;98588.72;4412304;32;20070;-73
2022/07/01 03:40:48;;;;;;;9.18;5.62;;;;;;;24.37;100.00;98558.19;4414668;32;20540;-73
2022/07/01 03:43:14;;;;;;;14.95;5.53;;;;;;;24.39;100.00;98566.88;4415237;32;20042;-73
2022/07/01 03:45:40;;;;;;;10.90;5.47;;;;;;;24.45;100.00;98564.69;4415250;32;20080;-73
2022/07/01 03:48:07;;;;;;;10.75;5.05;;;;;;;24.56;100.00;98571.28;4414349;32;20368;-73
2022/07/01 03:50:33;;;;;;;10.15;5.28;;;;;;;24.81;100.00;98601.38;4415257;32;20038;-73
2022/07/01 03:55:45;;;;;;;8.82;5.68;;;;;;;24.89;100.00;98600.41;4414041;32;20065;-73
2022/07/01 03:58:12;;;;;;;14.60;6.25;;;;;;;24.93;100.00;98595.00;4415294;32;20046;-73
2022/07/01 04:00:39;;;;;;;8.65;5.47;;;;;;;25.15;100.00;98585.28;4415668;32;20061;-73
2022/07/01 04:03:06;;;;;;;10.38;5.78;;;;;;;24.94;100.00;98591.87;4413411;32;20042;-73
2022/07/01 04:05:37;;;;;;;11.57;6.00;;;;;;;24.99;100.00;98588.06;4415273;32;20042;-73
2022/07/01 04:08:05;;;;;;;12.27;5.28;;;;;;;25.09;100.00;98586.72;4415044;32;20048;-73
2022/07/01 04:10:33;;;;;;;10.43;5.40;;;;;;;24.90;100.00;98551.66;4413416;32;20042;-74
2022/07/01 04:13:03;;;;;;;6.12;5.47;;;;;;;24.94;100.00;98553.34;4416246;32;20054;-73
2022/07/01 04:15:30;;;;;;;12.02;5.57;;;;;;;25.18;100.00;98584.56;4404427;32;20068;-73
2022/07/01 04:17:57;;;;;;;14.57;5.72;;;;;;;24.95;100.00;98552.16;4417940;32;20073;-73
2022/07/01 04:20:23;;;;;;;9.65;5.20;;;;;;;25.16;100.00;98582.19;4418045;32;20038;-73
2022/07/01 04:22:50;;;;;;;9.65;6.25;;;;;;;25.17;100.00;98571.94;4417641;32;20390;-73
2022/07/01 04:25:16;;;;;;;11.45;5.87;;;;;;;25.02;100.00;98538.56;4404030;32;20042;-73
2022/07/01 04:27:43;;;;;;;16.15;5.50;;;;;;;24.91;100.00;98517.47;4415303;32;20042;-73
2022/07/01 04:30:10;;;;;;;5.40;4.50;;;;;;;24.97;100.00;98549.88;4417184;32;20050;-73
2022/07/01 04:32:36;;;;;;;14.23;5.85;;;;;;;25.14;100.00;98545.13;4404012;32;20326;-72
2022/07/01 04:35:03;;;;;;;13.88;5.55;;;;;;;25.16;100.00;98543.63;4417412;32;20750;-73
2022/07/01 04:37:29;;;;;;;15.93;5.82;;;;;;;25.06;100.00;98548.88;4417616;32;20042;-73
2022/07/01 04:39:56;;;;;;;8.60;5.55;;;;;;;25.28;100.00;98573.03;4417527;32;20092;-74
2022/07/01 04:42:22;;;;;;;8.52;5.37;;;;;;;25.33;100.00;98572.75;4417046;32;20072;-73
2022/07/01 04:44:49;;;;;;;6.18;5.00;;;;;;;25.06;100.00;98532.34;4417328;32;20026;-73
2022/07/01 04:47:15;;;;;;;12.15;6.40;;;;;;;25.04;100.00;98529.16;4414655;32;20422;-74
2022/07/01 04:49:41;;;;;;;11.05;5.87;;;;;;;25.48;100.00;98570.28;4415394;32;20078;-74
2022/07/01 04:52:09;;;;;;;32.47;7.65;;;;;;;25.34;100.00;98526.72;4416349;32;20030;-73
2022/07/01 04:54:35;;;;;;;12.02;6.00;;;;;;;25.60;100.00;98570.16;4416941;32;20094;-73
2022/07/01 04:57:02;;;;;;;14.90;6.43;;;;;;;25.49;100.00;98549.84;4417189;32;20058;-73
2022/07/01 04:59:28;;;;;;;11.90;5.97;;;;;;;25.40;100.00;98552.00;4416049;32;20034;-71
2022/07/01 05:01:55;;;;;;;11.25;7.05;;;;;;;25.41;100.00;98520.56;4417078;32;20089;-71
2022/07/01 05:04:21;;;;;;;14.85;6.47;;;;;;;25.33;100.00;98547.94;4415828;32;20100;-73
2022/07/01 05:06:48;;;;;;;9.40;6.15;;;;;;;25.44;100.00;98526.12;4416166;32;20034;-73
2022/07/01 05:09:14;;;;;;;12.18;6.72;;;;;;;25.76;100.00;98547.25;4403514;32;20138;-71
2022/07/01 05:11:41;;;;;;;12.25;6.62;;;;;;;25.72;100.00;98563.72;4398700;32;20063;-71
2022/07/01 05:14:07;;;;;;;12.75;6.65;;;;;;;25.81;100.00;98555.25;4399439;32;20039;-75
2022/07/01 05:16:35;;;;;;;10.93;5.82;;;;;;;25.85;100.00;98556.12;4408586;32;20076;-75
2022/07/01 05:22:00;;;;;;;11.27;6.55;;;;;;;25.83;100.00;98528.09;4404531;32;20062;-70
2022/07/01 05:24:30;;;;;;;8.48;6.37;;;;;;;25.91;100.00;98560.16;4412313;32;20042;-71
2022/07/01 05:26:58;;;;;;;13.32;6.90;;;;;;;25.95;100.00;98561.03;4405597;32;20090;-70
2022/07/01 05:29:25;;;;;;;16.75;6.93;;;;;;;25.87;100.00;98526.22;4408980;32;20664;-72
2022/07/01 05:31:52;;;;;;;13.38;6.68;;;;;;;26.18;100.00;98563.06;4413782;32;20090;-75
2022/07/01 05:34:19;;;;;;;12.00;7.07;;;;;;;26.19;100.00;98559.16;4411278;32;20043;-71
2022/07/01 05:36:45;;;;;;;9.60;7.05;;;;;;;26.18;100.00;98513.41;4406886;32;20186;-71
2022/07/01 05:39:12;;;;;;;14.82;7.37;;;;;;;26.48;100.00;98559.66;4408186;32;20058;-69
2022/07/01 05:41:39;;;;;;;18.00;7.00;;;;;;;26.66;100.00;98560.78;4410272;32;20414;-70
2022/07/01 05:44:05;;;;;;;10.68;7.22;;;;;;;26.58;100.00;98545.25;4408684;32;20073;-71
2022/07/01 05:46:32;;;;;;;11.02;7.07;;;;;;;26.53;100.00;98548.31;4407748;32;20047;-72
2022/07/01 05:48:59;;;;;;;11.45;7.53;;;;;;;26.51;100.00;98553.41;4405972;32;20046;-71
2022/07/01 05:51:25;;;;;;;16.27;7.15;;;;;;;26.28;100.00;98516.38;4399010;32;20058;-72
2022/07/01 05:53:52;;;;;;;18.73;7.37;;;;;;;26.60;100.00;98535.44;4412797;32;20084;-72
2022/07/01 05:56:18;;;;;;;11.93;7.93;;;;;;;26.69;100.00;98551.78;4401573;32;20097;-71
2022/07/01 05:58:45;;;;;;;14.25;7.47;;;;;;;26.74;100.00;98547.91;4406985;32;20082;-71
2022/07/01 06:01:11;;;;;;;20.10;9.95;;;;;;;26.73;100.00;98516.75;4409485;32;20148;-71
2022/07/01 06:03:38;;;;;;;12.68;7.50;;;;;;;26.97;100.00;98548.66;4414649;32;20038;-70
2022/07/01 06:06:04;;;;;;;13.50;9.32;;;;;;;27.04;100.00;98547.19;4410463;32;20042;-70
2022/07/01 06:08:31;;;;;;;15.75;8.55;;;;;;;26.65;100.00;98526.09;4407122;32;20072;-72
2022/07/01 06:10:57;;;;;;;13.57;8.30;;;;;;;26.73;100.00;98494.66;4407412;32;20096;-72
2022/07/01 06:13:24;;;;;;;14.80;8.05;;;;;;;26.92;100.00;98512.31;4408391;32;20072;-71
2022/07/01 06:15:51;;;;;;;22.23;8.93;;;;;;;27.21;100.00;98554.16;4409704;32;20050;-71
2022/07/01 06:18:18;;;;;;;26.75;8.20;;;;;;;27.24;100.00;98553.41;4410424;32;20106;-71
2022/07/01 06:20:44;;;;;;;16.50;8.82;;;;;;;27.00;100.00;98514.00;4411106;32;20075;-71
2022/07/01 06:23:10;;;;;;;12.55;8.18;;;;;;;27.24;100.00;98540.38;4415213;32;20092;-71
2022/07/01 06:25:37;;;;;;;10.98;8.90;;;;;;;27.01;100.00;98521.09;4413090;32;20699;-72
2022/07/01 06:28:04;;;;;;;16.05;8.52;;;;;;;27.22;100.00;98556.56;4397957;32;20031;-72
2022/07/01 06:30:38;;;;;;;16.50;7.47;;;;;;;27.49;100.00;98546.28;4413206;32;20394;-71
2022/07/01 06:33:04;;;;;;;18.23;8.57;;;;;;;27.59;100.00;98555.88;4413735;32;20089;-70
2022/07/01 06:35:31;;;;;;;16.62;8.02;;;;;;;27.59;100.00;98566.13;4416819;32;20119;-69
2022/07/01 06:37:57;;;;;;;16.02;8.63;;;;;;;27.66;100.00;98553.19;4414940;32;20053;-70
2022/07/01 06:40:31;;;;;;;9.63;7.20;;;;;;;27.80;100.00;98547.06;4419618;32;20439;-70
2022/07/01 06:42:57;;;;;;;11.88;7.97;;;;;;;28.17;100.00;98551.06;4419889;32;20091;-69
2022/07/01 06:45:24;;;;;;;17.52;8.00;;;;;;;28.18;100.00;98553.44;4421468;32;20100;-71
2022/07/01 06:47:50;;;;;;;11.77;7.82;;;;;;;28.07;100.00;98524.88;4424090;32;20072;-69
2022/07/01 06:50:17;;;;;;;16.15;7.97;;;;;;;28.23;100.00;98519.88;4424099;32;20093;-70
2022/07/01 06:52:43;;;;;;;15.70;8.82;;;;;;;28.59;100.00;98549.88;4406479;32;20034;-70
2022/07/01 06:55:10;;;;;;;16.92;8.80;;;;;;;28.55;100.00;98516.59;4419521;32;20061;-69
2022/07/01 06:57:37;;;;;;;9.55;8.43;;;;;;;28.60;100.00;98540.41;4416846;32;20112;-71
2022/07/01 07:00:04;;;;;;;13.38;7.30;;;;;;;28.63;100.00;98525.81;4417823;32;20046;-71
2022/07/01 07:02:37;;;;;;;20.75;8.07;;;;;;;28.63;100.00;98523.81;4411528;32;20043;-72
2022/07/01 07:05:04;;;;;;;20.55;8.25;;;;;;;29.02;100.00;98549.44;4401600;32;20072;-70
2022/07/01 07:07:30;;;;;;;14.82;8.50;;;;;;;28.85;100.00;98542.56;4415067;32;20694;-70
2022/07/01 07:09:56;;;;;;;24.35;8.15;;;;;;;29.24;100.00;98542.88;4401147;32;20022;-70
2022/07/01 07:12:23;;;;;;;12.02;7.43;;;;;;;29.42;100.00;98551.31;4415526;32;20195;-70
2022/07/01 07:14:49;;;;;;;17.52;9.25;;;;;;;29.43;100.00;98552.09;4413003;32;20395;-69
2022/07/01 07:17:15;;;;;;;14.10;8.00;;;;;;;29.23;100.00;98543.25;4401726;32;20421;-75
2022/07/01 07:19:42;;;;;;;17.27;9.60;;;;;;;29.52;100.00;98519.25;4420211;32;20071;-70
2022/07/01 07:22:08;;;;;;;13.68;8.48;;;;;;;29.51;100.00;98529.53;4421096;32;20154;-71
2022/07/01 07:24:35;;;;;;;21.80;7.37;;;;;;;29.61;100.00;98560.50;4423848;32;20030;-70
2022/07/01 07:27:01;;;;;;;16.00;8.20;;;;;;;29.75;100.00;98557.00;4424448;32;20462;-69
2022/07/01 07:29:29;;;;;;;17.55;9.07;;;;;;;29.55;100.00;98551.75;4417962;32;20038;-74
2022/07/01 07:31:55;;;;;;;31.73;7.57;;;;;;;29.41;100.00;98555.25;4415221;32;20039;-70
2022/07/01 07:34:22;;;;;;;17.73;8.65;;;;;;;29.75;100.00;98541.12;4415309;32;20141;-67
2022/07/01 07:36:48;;;;;;;9.07;7.60;;;;;;;29.55;100.00;98510.16;4413713;32;20057;-73
2022/07/01 07:39:14;;;;;;;10.63;7.45;;;;;;;29.79;100.00;98513.44;4414110;32;20072;-71
2022/07/01 07:41:41;;;;;;;13.60;8.57;;;;;;;29.99;100.00;98550.75;4398931;32;20064;-74
2022/07/01 07:44:07;;;;;;;17.52;7.40;;;;;;;30.12;100.00;98547.63;4406003;32;20973;-70
2022/07/01 07:46:33;;;;;;;22.17;8.65;;;;;;;30.38;100.00;98561.19;4418865;32;20446;-70
2022/07/01 07:49:00;;;;;;;22.35;8.13;;;;;;;30.34;100.00;98549.25;4425709;32;20067;-70
2022/07/01 07:51:26;;;;;;;13.62;7.53;;;;;;;29.79;100.00;98521.75;4425322;32;20031;-70
2022/07/01 07:53:52;;;;;;;17.77;7.78;;;;;;;30.16;100.00;98554.00;4401743;32;20047;-70
2022/07/01 07:56:20;;;;;;;18.15;7.85;;;;;;;30.66;100.00;98556.06;4399746;32;20054;-71
2022/07/01 07:58:46;;;;;;;17.90;8.25;;;;;;;30.66;100.00;98531.84;4408008;32;20071;-68
2022/07/01 08:01:13;;;;;;;13.85;7.53;;;;;;;30.36;100.00;98541.31;4422908;32;20043;-71
2022/07/01 08:03:39;;;;;;;11.90;8.13;;;;;;;30.69;100.00;98558.81;4412590;32;20042;-70
2022/07/01 08:06:06;;;;;;;16.70;7.70;;;;;;;30.52;100.00;98529.06;4433151;32;20042;-70
2022/07/01 08:08:32;;;;;;;16.80;7.57;;;;;;;30.36;100.00;98530.19;4431937;32;20027;-72
2022/07/01 08:10:59;;;;;;;9.65;7.03;;;;;;;30.61;100.00;98540.56;4433142;32;20058;-71
2022/07/01 08:13:25;;;;;;;10.32;7.55;;;;;;;30.56;100.00;98565.97;4430489;32;20038;-71
2022/07/01 08:15:51;;;;;;;22.08;8.88;;;;;;;30.76;100.00;98569.97;4432231;32;20803;-70
2022/07/01 08:18:18;;;;;;;21.52;9.23;;;;;;;30.85;100.00;98565.97;4418733;32;20203;-69
2022/07/01 08:20:45;;;;;;;14.73;8.30;;;;;;;31.02;100.00;98578.28;4416518;32;20043;-71
2022/07/01 08:23:12;;;;;;;15.00;7.35;;;;;;;31.32;100.00;98572.28;4416339;32;20031;-70
2022/07/01 08:25:40;;;;;;;19.10;7.40;;;;;;;31.49;100.00;98576.22;4416925;32;20043;-71
2022/07/01 08:28:06;;;;;;;16.52;7.05;;;;;;;31.59;100.00;98580.19;4393683;32;20042;-72
2022/07/01 08:30:33;;;;;;;13.15;7.15;;;;;;;31.34;100.00;98547.66;4408940;32;20112;-70
2022/07/01 08:33:00;;;;;;;18.02;8.27;;;;;;;31.79;100.00;98572.97;4405693;32;20066;-70
2022/07/01 08:35:26;;;;;;;9.50;7.10;;;;;;;31.58;100.00;98561.94;4403759;32;20064;-71
2022/07/01 08:37:52;;;;;;;11.38;7.22;;;;;;;31.73;100.00;98574.56;4403005;32;20161;-70
2022/07/01 08:40:23;;;;;;;15.88;6.78;;;;;;;31.45;100.00;98498.34;4417655;32;20048;-70
2022/07/01 08:42:49;;;;;;;16.52;8.13;;;;;;;32.00;100.00;98560.94;4416827;32;20368;-69
2022/07/01 08:45:16;;;;;;;20.23;8.32;;;;;;;31.20;100.00;98548.50;4415905;32;20056;-71
2022/07/01 08:47:51;;;;;;;17.75;7.82;;;;;;;31.15;100.00;98524.66;4416194;32;20042;-71
2022/07/01 08:50:17;;;;;;;32.28;8.38;;;;;;;31.39;100.00;98555.59;4417465;32;20047;-71
2022/07/01 08:52:44;;;;;;;12.63;8.70;;;;;;;31.42;100.00;98526.19;4415946;32;20356;-71
2022/07/01 08:55:10;;;;;;;21.65;8.57;;;;;;;31.65;100.00;98550.75;4417156;32;20377;-71
2022/07/01 08:57:36;;;;;;;14.05;7.55;;;;;;;31.52;100.00;98553.16;4415822;32;20068;-71
2022/07/01 09:00:05;;;;;;;15.43;9.40;;;;;;;31.73;100.00;98530.06;4417137;32;20030;-73
2022/07/01 09:02:50;;;;;;;17.80;7.90;;;;;;;32.05;100.00;98529.09;4417024;32;20380;-73
2022/07/01 09:05:18;;;;;;;12.35;7.80;;;;;;;32.17;100.00;98564.06;4419357;32;20072;-73
2022/07/01 09:07:46;;;;;;;14.50;7.97;;;;;;;31.71;100.00;98551.94;4402164;32;20026;-73
2022/07/01 09:10:17;;;;;;;13.85;8.10;;;;;;;31.28;100.00;98552.06;4417463;32;20060;-73
2022/07/01 09:12:45;;;;;;;10.05;7.85;;;;;;;32.08;100.00;98567.28;4404418;32;20093;-73
2022/07/01 09:15:25;;;;;;;13.65;7.95;;;;;;;32.00;100.00;98532.31;4400726;32;20031;-73
2022/07/01 09:18:02;;;;;;;14.20;7.30;;;;;;;32.15;100.00;98567.25;4401401;32;20182;-74
2022/07/01 09:20:31;;;;;;;12.40;8.43;;;;;;;32.40;100.00;98555.16;4409969;32;20072;-73
2022/07/01 09:23:00;;;;;;;17.08;7.85;;;;;;;32.09;100.00;98545.81;4416152;32;20060;-71
2022/07/01 09:25:32;;;;;;;9.63;7.82;;;;;;;32.09;100.00;98529.91;4415746;32;20064;-72
2022/07/01 09:28:14;;;;;;;22.95;8.10;;;;;;;32.28;100.00;98558.41;4412515;32;20836;-72
2022/07/01 09:30:43;;;;;;;14.95;8.38;;;;;;;31.95;100.00;98546.66;4416797;32;20425;-73
2022/07/01 09:33:11;;;;;;;27.20;14.30;;;;;;;32.25;100.00;98515.47;4418105;32;20314;-76
2022/07/01 09:35:38;;;;;;;15.75;7.70;;;;;;;32.56;100.00;98563.78;4418239;32;20039;-73
2022/07/01 09:38:07;;;;;;;15.13;7.93;;;;;;;33.04;100.00;98555.84;4415324;32;20462;-73
2022/07/01 09:40:49;;;;;;;11.20;8.00;;;;;;;32.94;100.00;98560.34;4419929;32;20228;-72
2022/07/01 09:43:26;;;;;;;;;;;;;;;32.39;100.00;98567.50;4414527;32;20038;-72
2022/07/01 09:46:13;;;;;;;11.05;7.35;;;;;;;32.98;100.00;98563.91;4420174;32;19934;-73
2022/07/01 09:48:39;;;;;;;19.92;7.72;;;;;;;33.33;100.00;98558.38;4419464;32;20119;-73
2022/07/01 09:51:08;;;;;;;16.87;7.28;;;;;;;33.35;100.00;98553.97;4424205;32;20750;-73
2022/07/01 09:53:34;;;;;;;11.95;8.02;;;;;;;33.05;100.00;98563.03;4421231;32;20046;-73
2022/07/01 09:56:00;;;;;;;17.42;7.65;;;;;;;33.07;100.00;98538.31;4420676;32;20640;-73
2022/07/01 09:58:28;;;;;;;11.07;7.40;;;;;;;33.50;100.00;98562.97;4419587;32;20046;-73
2022/07/01 10:00:54;;;;;;;15.05;7.57;;;;;;;33.35;100.00;98550.38;4422064;32;20137;-75
2022/07/01 10:03:25;;;;;;;10.52;7.68;;;;;;;33.45;100.00;98549.50;4420262;32;20395;-76
2022/07/01 10:06:37;;;;;;;19.48;7.78;;;;;;;32.95;100.00;98557.12;4427936;32;20086;-72
2022/07/01 10:09:13;;;;;;;11.15;6.80;;;;;;;33.40;99.15;98558.31;4430006;32;20034;-73
2022/07/01 10:11:42;;;;;;;7.90;7.12;;;;;;;33.04;95.76;98553.84;4431068;32;20378;-73
2022/07/01 10:14:12;;;;;;;11.12;7.62;;;;;;;33.63;95.51;98550.06;4425687;32;20424;-73
2022/07/01 10:16:39;;;;;;;25.02;6.85;;;;;;;33.49;99.18;98539.06;4416274;32;20450;-73
2022/07/01 10:19:25;;;;;;;12.10;7.05;;;;;;;33.83;93.90;98541.09;4415017;32;20034;-73
2022/07/01 10:21:56;;;;;;;10.63;6.43;;;;;;;34.10;90.94;98543.09;4416232;32;20058;-73
2022/07/01 10:24:25;;;;;;;15.65;6.12;;;;;;;34.20;87.87;98526.19;4401251;32;20072;-73
2022/07/01 10:26:51;;;;;;;20.65;8.30;;;;;;;34.03;82.01;98511.28;4413102;32;20060;-72
2022/07/01 10:29:35;;;;;;;18.30;6.82;;;;;;;33.86;87.10;98540.25;4419449;32;20060;-73
2022/07/01 10:32:41;;;;;;;11.88;6.68;;;;;;;33.94;84.86;98533.34;4423119;32;20564;-72
2022/07/01 10:35:09;;;;;;;9.55;6.90;;;;;;;34.42;80.59;98541.84;4351100;32;20043;-70
2022/07/01 10:37:56;;;;;;;9.85;6.60;;;;;;;34.01;78.42;98538.81;4338895;32;20066;-71
2022/07/01 10:40:48;;;;;;;15.30;6.75;;;;;;;33.88;75.24;98537.81;4351655;32;20074;-71
2022/07/01 10:43:17;;;;;;;16.37;6.53;;;;;;;34.31;78.21;98537.22;4351486;32;20044;-72
2022/07/01 10:45:45;;;;;;;11.73;7.32;;;;;;;34.64;77.41;98539.50;4352931;32;20385;-70
2022/07/01 10:48:21;;;;;;;16.20;6.57;;;;;;;34.72;75.29;98516.63;4340642;32;20047;-71
2022/07/01 10:50:50;;;;;;;6.72;5.80;;;;;;;35.21;75.92;98534.94;4353438;32;20039;-71
2022/07/01 10:53:17;;;;;;;8.13;5.47;;;;;;;34.97;73.00;98543.34;4351730;32;20039;-76
2022/07/01 10:55:51;;;;;;;12.77;6.15;;;;;;;34.82;68.18;98486.91;4353007;32;20454;-71
2022/07/01 10:58:34;;;;;;;7.87;6.35;;;;;;;35.22;65.50;98481.34;4353066;32;20047;-73
2022/07/01 11:01:00;;;;;;;14.20;6.80;;;;;;;35.18;68.80;98535.78;4353344;32;20036;-71
2022/07/01 11:03:27;;;;;;;20.05;7.55;;;;;;;35.04;68.22;98504.09;4352269;32;20048;-71
2022/07/01 11:05:55;;;;;;;15.15;6.35;;;;;;;35.16;72.98;98539.03;4352739;32;20077;-70
2022/07/01 11:08:22;;;;;;;21.92;7.65;;;;;;;35.13;71.03;98488.75;4360065;32;20145;-69
2022/07/01 11:10:52;;;;;;;12.73;6.57;;;;;;;35.01;76.17;98521.72;4400221;32;20082;-68
2022/07/01 11:13:19;;;;;;;8.00;6.40;;;;;;;35.93;70.32;98520.31;4416722;32;20127;-69
2022/07/01 11:15:47;;;;;;;6.40;5.82;;;;;;;35.06;77.02;98523.25;4420877;32;20064;-68
2022/07/01 11:18:15;;;;;;;10.55;6.62;;;;;;;34.82;74.46;98486.13;4422829;32;20056;-68
2022/07/01 11:20:42;;;;;;;13.32;6.18;;;;;;;35.58;71.83;98502.25;4420719;32;20393;-70
2022/07/01 11:23:08;;;;;;;7.60;5.40;;;;;;;35.44;63.50;98481.75;4411869;32;20366;-69
2022/07/01 11:25:35;;;;;;;11.05;6.57;;;;;;;35.57;63.68;98509.09;4403800;32;20052;-69
2022/07/01 11:28:01;;;;;;;11.27;5.82;;;;;;;35.44;61.31;98498.53;4417748;32;20073;-69
2022/07/01 11:30:28;;;;;;;24.30;6.53;;;;;;;35.55;62.87;98494.72;4418456;32;20077;-69
2022/07/01 11:32:57;;;;;;;9.60;6.55;;;;;;;35.60;60.38;98466.22;4417753;32;20042;-70